createdAt,value
2019-04-28T00:01:15.046Z,67.90
2019-04-28T00:03:44.628Z,67.90
2019-04-28T00:06:13.272Z,67.90
2019-04-28T00:08:42.896Z,67.90
2019-04-28T00:11:11.939Z,68.00
2019-04-28T00:13:41.745Z,68.10
2019-04-28T00:16:11.586Z,68.10
2019-04-28T00:18:41.517Z,68.00
2019-04-28T00:21:31.811Z,68.00
2019-04-28T00:24:13.833Z,68.00
2019-04-28T00:26:44.292Z,67.90
2019-04-28T00:29:12.752Z,67.70
2019-04-28T00:31:41.516Z,67.60
2019-04-28T00:34:11.426Z,67.80
2019-04-28T00:36:42.597Z,67.60
2019-04-28T00:39:11.411Z,67.60
2019-04-28T00:41:42.048Z,67.80
2019-04-28T00:44:11.912Z,67.70
2019-04-28T00:46:43.869Z,67.60
2019-04-28T00:49:12.367Z,67.50
2019-04-28T00:51:41.479Z,67.60
2019-04-28T00:54:12.050Z,67.60
2019-04-28T00:56:41.833Z,67.40
2019-04-28T00:59:11.939Z,67.50
2019-04-28T01:01:51.342Z,67.70
2019-04-28T01:04:21.932Z,68.00
2019-04-28T01:06:51.989Z,68.30
2019-04-28T01:09:21.843Z,68.60
2019-04-28T01:11:53.370Z,68.70
2019-04-28T01:14:21.918Z,68.90
2019-04-28T01:16:54.734Z,69.80
2019-04-28T01:19:24.928Z,69.20
2019-04-28T01:21:57.579Z,69.20
2019-04-28T01:24:26.309Z,69.30
2019-04-28T01:26:56.340Z,69.50
2019-04-28T01:29:25.451Z,69.60
2019-04-28T01:31:55.670Z,69.50
2019-04-28T01:34:24.893Z,69.70
2019-04-28T01:36:53.596Z,70.00
2019-04-28T01:39:22.126Z,70.10
2019-04-28T01:41:50.709Z,70.20
2019-04-28T01:44:19.827Z,70.40
2019-04-28T01:46:49.615Z,70.60
2019-04-28T01:49:19.612Z,70.80
2019-04-28T01:52:00.830Z,70.80
2019-04-28T01:54:33.238Z,71.20
2019-04-28T01:57:02.087Z,71.20
2019-04-28T01:59:30.579Z,71.30
2019-04-28T02:02:00.186Z,71.50
2019-04-28T02:04:32.303Z,71.80
2019-04-28T02:07:00.057Z,71.90
2019-04-28T02:09:29.719Z,72.00
2019-04-28T02:12:00.633Z,72.30
2019-04-28T02:14:30.795Z,72.40
2019-04-28T02:17:00.536Z,72.60
2019-04-28T02:19:30.603Z,72.90
2019-04-28T02:22:10.531Z,73.20
2019-04-28T02:24:40.503Z,73.40
2019-04-28T02:27:10.638Z,73.70
2019-04-28T02:29:41.513Z,73.60
2019-04-28T02:32:11.957Z,73.80
2019-04-28T02:34:41.233Z,73.90
2019-04-28T02:37:11.260Z,73.90
2019-04-28T02:39:41.182Z,74.00
2019-04-28T02:42:11.052Z,74.20
2019-04-28T02:44:40.435Z,74.40
2019-04-28T02:47:11.138Z,74.30
2019-04-28T02:49:44.348Z,74.30
2019-04-28T02:52:30.920Z,74.30
2019-04-28T02:55:03.327Z,74.60
2019-04-28T02:57:31.072Z,74.50
2019-04-28T03:00:21.330Z,74.70
2019-04-28T03:02:51.364Z,74.80
2019-04-28T03:05:21.525Z,74.80
2019-04-28T03:07:51.539Z,74.90
2019-04-28T03:10:21.605Z,75.00
2019-04-28T03:12:51.917Z,75.10
2019-04-28T03:15:20.866Z,75.00
2019-04-28T03:17:52.536Z,75.00
2019-04-28T03:20:20.967Z,75.10
2019-04-28T03:22:51.175Z,75.00
2019-04-28T03:25:33.571Z,75.20
2019-04-28T03:28:02.846Z,75.30
2019-04-28T03:30:47.900Z,75.30
2019-04-28T03:33:25.364Z,75.40
2019-04-28T03:35:53.646Z,75.30
2019-04-28T03:38:21.425Z,75.30
2019-04-28T03:40:51.368Z,75.30
2019-04-28T03:43:21.296Z,75.40
2019-04-28T03:45:54.714Z,75.40
2019-04-28T03:48:25.204Z,75.40
2019-04-28T03:50:53.436Z,75.50
2019-04-28T03:53:21.996Z,75.50
2019-04-28T03:55:51.291Z,75.70
2019-04-28T03:58:23.614Z,75.70
2019-04-28T04:00:50.761Z,75.70
2019-04-28T04:03:21.048Z,75.80
2019-04-28T04:05:51.050Z,75.80
2019-04-28T04:08:20.923Z,75.80
2019-04-28T04:10:51.540Z,75.80
2019-04-28T04:13:33.749Z,75.70
2019-04-28T04:16:10.350Z,75.70
2019-04-28T04:18:46.854Z,75.80
2019-04-28T04:21:15.340Z,75.90
2019-04-28T04:23:44.100Z,76.60
2019-04-28T04:26:12.563Z,75.80
2019-04-28T04:28:41.769Z,75.80
2019-04-28T04:31:10.791Z,75.80
2019-04-28T04:33:41.048Z,75.70
2019-04-28T04:36:11.566Z,75.80
2019-04-28T04:38:45.783Z,75.80
2019-04-28T04:41:11.367Z,75.80
2019-04-28T04:43:41.503Z,75.70
2019-04-28T04:46:21.895Z,75.50
2019-04-28T04:48:51.131Z,76.30
2019-04-28T04:51:21.351Z,75.40
2019-04-28T04:53:51.299Z,75.30
2019-04-28T04:56:21.383Z,75.20
2019-04-28T04:58:50.637Z,75.10
2019-04-28T05:01:21.263Z,74.90
2019-04-28T05:04:09.584Z,74.90
2019-04-28T05:06:41.749Z,74.80
2019-04-28T05:09:11.407Z,74.60
2019-04-28T05:11:40.530Z,74.60
2019-04-28T05:14:11.496Z,74.70
2019-04-28T05:16:40.013Z,74.60
2019-04-28T05:19:10.109Z,74.70
2019-04-28T05:21:40.080Z,74.70
2019-04-28T05:24:20.140Z,74.90
2019-04-28T05:26:51.638Z,74.80
2019-04-28T05:29:26.580Z,74.90
2019-04-28T05:31:50.726Z,74.90
2019-04-28T05:34:23.790Z,74.90
2019-04-28T05:36:51.026Z,74.80
2019-04-28T05:39:19.783Z,74.90
2019-04-28T05:41:50.286Z,74.90
2019-04-28T05:44:20.169Z,74.90
2019-04-28T05:46:50.937Z,74.90
2019-04-28T05:49:23.707Z,74.90
2019-04-28T05:51:56.338Z,74.80
2019-04-28T05:54:26.439Z,74.80
2019-04-28T05:57:02.608Z,74.60
2019-04-28T05:59:50.529Z,74.60
2019-04-28T06:02:23.672Z,74.30
2019-04-28T06:04:52.572Z,74.10
2019-04-28T06:07:22.714Z,74.00
2019-04-28T06:09:52.902Z,73.60
2019-04-28T06:12:22.319Z,73.30
2019-04-28T06:14:50.886Z,73.00
2019-04-28T06:17:20.568Z,72.70
2019-04-28T06:19:50.538Z,72.00
2019-04-28T06:22:19.650Z,71.60
2019-04-28T06:24:48.112Z,70.90
2019-04-28T06:27:16.589Z,70.00
2019-04-28T06:29:45.107Z,68.60
2019-04-28T06:32:13.586Z,68.00
2019-04-28T06:34:42.079Z,63.90
2019-04-28T06:37:10.644Z,58.90
2019-04-28T06:39:39.478Z,56.00
2019-04-28T06:42:08.030Z,56.20
2019-04-28T06:44:36.516Z,56.40
2019-04-28T06:47:05.516Z,56.50
2019-04-28T06:49:33.982Z,58.00
2019-04-28T06:52:02.507Z,58.90
2019-04-28T06:54:31.034Z,58.70
2019-04-28T06:56:59.526Z,59.10
2019-04-28T06:59:28.012Z,60.10
2019-04-28T07:01:56.961Z,60.80
2019-04-28T07:04:25.505Z,61.50
2019-04-28T07:06:54.058Z,62.00
2019-04-28T07:09:22.880Z,62.70
2019-04-28T07:11:51.744Z,63.40
2019-04-28T07:14:20.297Z,63.80
2019-04-28T07:16:48.821Z,64.20
2019-04-28T07:19:17.581Z,64.30
2019-04-28T07:21:47.690Z,64.40
2019-04-28T07:24:16.181Z,64.30
2019-04-28T07:26:44.745Z,64.20
2019-04-28T07:29:13.226Z,64.40
2019-04-28T07:31:41.713Z,64.40
2019-04-28T07:34:10.183Z,64.60
2019-04-28T07:36:38.787Z,64.70
2019-04-28T07:39:07.631Z,64.70
2019-04-28T07:41:36.243Z,64.40
2019-04-28T07:44:04.818Z,64.30
2019-04-28T07:46:33.292Z,64.40
2019-04-28T07:49:01.912Z,64.50
2019-04-28T07:51:32.027Z,64.50
2019-04-28T07:54:10.763Z,64.50
2019-04-28T07:56:39.369Z,64.30
2019-04-28T07:59:07.934Z,64.00
2019-04-28T08:01:37.510Z,62.40
2019-04-28T08:04:06.047Z,61.90
2019-04-28T08:06:34.518Z,62.30
2019-04-28T08:09:03.558Z,62.70
2019-04-28T08:11:32.307Z,63.20
2019-04-28T08:14:01.082Z,63.40
2019-04-28T08:16:29.640Z,63.80
2019-04-28T08:18:58.121Z,64.10
2019-04-28T08:21:26.619Z,64.00
2019-04-28T08:23:55.142Z,63.80
2019-04-28T08:26:23.693Z,63.70
2019-04-28T08:28:52.349Z,63.80
2019-04-28T08:31:22.523Z,63.90
2019-04-28T08:34:02.881Z,64.10
2019-04-28T08:36:31.603Z,64.60
2019-04-28T08:39:00.561Z,64.60
2019-04-28T08:41:29.035Z,65.40
2019-04-28T08:43:57.850Z,64.80
2019-04-28T08:46:26.496Z,65.00
2019-04-28T08:48:55.004Z,65.10
2019-04-28T08:51:23.533Z,65.20
2019-04-28T08:53:52.598Z,65.20
2019-04-28T08:56:21.287Z,65.00
2019-04-28T08:58:49.755Z,65.10
2019-04-28T09:01:18.304Z,64.80
2019-04-28T09:03:46.774Z,64.90
2019-04-28T09:06:15.478Z,65.00
2019-04-28T09:08:43.984Z,65.00
2019-04-28T09:11:12.922Z,65.20
2019-04-28T09:13:43.884Z,65.30
2019-04-28T09:16:13.160Z,65.40
2019-04-28T09:18:42.168Z,65.20
2019-04-28T09:21:10.624Z,65.30
2019-04-28T09:23:39.161Z,65.10
2019-04-28T09:26:07.685Z,65.10
2019-04-28T09:28:37.722Z,65.00
2019-04-28T09:31:06.750Z,64.70
2019-04-28T09:33:35.233Z,64.70
2019-04-28T09:36:04.661Z,64.60
2019-04-28T09:38:33.222Z,64.40
2019-04-28T09:41:01.707Z,64.20
2019-04-28T09:43:34.777Z,64.00
2019-04-28T09:46:04.882Z,63.90
2019-04-28T09:48:33.356Z,64.90
2019-04-28T09:51:01.892Z,63.90
2019-04-28T09:53:30.361Z,63.90
2019-04-28T09:55:58.963Z,63.90
2019-04-28T09:58:27.430Z,63.90
2019-04-28T10:00:55.909Z,63.70
2019-04-28T10:03:25.354Z,63.60
2019-04-28T10:05:54.113Z,63.70
2019-04-28T10:08:22.606Z,63.60
2019-04-28T10:10:51.546Z,63.40
2019-04-28T10:13:20.037Z,63.60
2019-04-28T10:15:48.667Z,63.50
2019-04-28T10:18:17.466Z,63.50
2019-04-28T10:20:46.611Z,63.60
2019-04-28T10:23:15.090Z,63.60
2019-04-28T10:25:44.624Z,63.60
2019-04-28T10:28:14.913Z,63.50
2019-04-28T10:30:43.436Z,63.70
2019-04-28T10:33:11.998Z,63.80
2019-04-28T10:35:40.858Z,63.80
2019-04-28T10:38:09.338Z,63.70
2019-04-28T10:40:59.471Z,63.30
2019-04-28T10:43:28.014Z,63.10
2019-04-28T10:45:56.497Z,62.90
2019-04-28T10:48:25.038Z,62.80
2019-04-28T10:50:53.973Z,62.50
2019-04-28T10:53:22.473Z,62.50
2019-04-28T10:55:50.940Z,62.10
2019-04-28T10:58:19.809Z,62.30
2019-04-28T11:00:48.397Z,62.00
2019-04-28T11:03:16.993Z,61.90
2019-04-28T11:05:46.611Z,62.70
2019-04-28T11:08:19.469Z,62.00
2019-04-28T11:10:47.946Z,62.00
2019-04-28T11:13:17.139Z,62.00
2019-04-28T11:15:45.707Z,62.00
2019-04-28T11:18:15.589Z,62.10
2019-04-28T11:20:44.053Z,62.10
2019-04-28T11:23:13.773Z,62.40
2019-04-28T11:25:42.664Z,62.30
2019-04-28T11:28:11.339Z,62.20
2019-04-28T11:30:40.377Z,62.10
2019-04-28T11:33:10.926Z,62.00
2019-04-28T11:35:41.026Z,61.80
2019-04-28T11:38:09.594Z,61.60
2019-04-28T11:40:38.367Z,61.30
2019-04-28T11:43:06.911Z,61.00
2019-04-28T11:45:35.405Z,60.80
2019-04-28T11:48:06.225Z,60.70
2019-04-28T11:50:34.719Z,60.50
2019-04-28T11:53:03.738Z,60.50
2019-04-28T11:55:33.366Z,60.30
2019-04-28T11:58:01.907Z,60.20
2019-04-28T12:00:32.091Z,59.90
2019-04-28T12:03:01.782Z,59.70
2019-04-28T12:05:38.333Z,59.20
2019-04-28T12:08:05.827Z,59.10
2019-04-28T12:10:38.677Z,59.00
2019-04-28T12:13:24.977Z,58.60
2019-04-28T12:15:55.100Z,58.30
2019-04-28T12:18:41.423Z,58.20
2019-04-28T12:21:13.297Z,58.00
2019-04-28T12:24:01.131Z,57.90
2019-04-28T12:26:29.611Z,57.60
2019-04-28T12:29:00.749Z,57.30
2019-04-28T12:31:28.714Z,57.00
2019-04-28T12:33:57.220Z,57.10
2019-04-28T12:36:25.734Z,57.00
2019-04-28T12:38:55.789Z,56.80
2019-04-28T12:41:24.271Z,56.60
2019-04-28T12:43:54.668Z,56.70
2019-04-28T12:46:22.979Z,56.40
2019-04-28T12:48:53.075Z,56.50
2019-04-28T12:51:21.609Z,55.60
2019-04-28T12:53:51.747Z,55.90
2019-04-28T12:56:20.217Z,56.40
2019-04-28T12:58:50.314Z,56.90
2019-04-28T13:01:20.445Z,56.80
2019-04-28T13:03:50.583Z,56.40
2019-04-28T13:06:21.192Z,56.50
2019-04-28T13:08:51.857Z,56.40
2019-04-28T13:11:20.587Z,56.50
2019-04-28T13:13:49.379Z,56.40
2019-04-28T13:16:17.841Z,56.30
2019-04-28T13:18:47.820Z,56.60
2019-04-28T13:21:16.292Z,56.70
2019-04-28T13:23:45.133Z,56.70
2019-04-28T13:26:13.736Z,56.30
2019-04-28T13:28:42.308Z,56.50
2019-04-28T13:31:10.862Z,57.10
2019-04-28T13:33:53.783Z,57.20
2019-04-28T13:36:14.968Z,56.90
2019-04-28T13:38:39.881Z,56.80
2019-04-28T13:41:08.367Z,56.40
2019-04-28T13:43:36.873Z,56.40
2019-04-28T13:46:05.555Z,56.20
2019-04-28T13:48:34.137Z,55.70
2019-04-28T13:51:02.646Z,55.20
2019-04-28T13:53:31.233Z,54.90
2019-04-28T13:56:01.371Z,55.20
2019-04-28T13:58:31.578Z,54.70
2019-04-28T14:01:13.313Z,54.60
2019-04-28T14:03:43.456Z,54.20
2019-04-28T14:06:13.564Z,54.30
2019-04-28T14:08:42.112Z,54.40
2019-04-28T14:11:11.136Z,54.60
2019-04-28T14:13:39.639Z,55.00
2019-04-28T14:16:27.472Z,54.50
2019-04-28T14:18:55.968Z,54.30
2019-04-28T14:21:25.183Z,54.70
2019-04-28T14:23:53.689Z,54.80
2019-04-28T14:26:22.255Z,54.70
2019-04-28T14:28:51.361Z,54.50
2019-04-28T14:31:19.848Z,55.00
2019-04-28T14:33:48.442Z,54.20
2019-04-28T14:36:16.973Z,54.10
2019-04-28T14:38:45.547Z,53.90
2019-04-28T14:41:14.108Z,53.90
2019-04-28T14:43:44.119Z,53.70
2019-04-28T14:46:12.653Z,53.60
2019-04-28T14:48:41.137Z,53.50
2019-04-28T14:51:09.609Z,53.50
2019-04-28T14:53:38.453Z,53.40
2019-04-28T14:56:07.450Z,53.30
2019-04-28T14:58:36.417Z,53.30
2019-04-28T15:01:06.957Z,53.30
2019-04-28T15:03:39.765Z,53.50
2019-04-28T15:06:19.025Z,53.70
2019-04-28T15:09:04.195Z,53.80
2019-04-28T15:11:34.408Z,53.90
2019-04-28T15:14:04.242Z,54.00
2019-04-28T15:16:32.789Z,54.00
2019-04-28T15:19:01.390Z,54.20
2019-04-28T15:21:30.165Z,54.70
2019-04-28T15:23:58.871Z,55.00
2019-04-28T15:26:27.915Z,55.10
2019-04-28T15:28:56.567Z,55.10
2019-04-28T15:31:25.125Z,55.10
2019-04-28T15:33:53.672Z,55.00
2019-04-28T15:36:22.175Z,54.80
2019-04-28T15:38:50.732Z,54.80
2019-04-28T15:41:21.876Z,54.90
2019-04-28T15:43:49.769Z,55.10
2019-04-28T15:46:18.399Z,55.20
2019-04-28T15:48:47.236Z,55.30
2019-04-28T15:51:15.998Z,55.20
2019-04-28T15:53:46.104Z,55.30
2019-04-28T15:56:16.202Z,55.40
2019-04-28T15:58:45.156Z,55.20
2019-04-28T16:01:13.668Z,55.20
2019-04-28T16:03:42.530Z,55.00
2019-04-28T16:06:11.582Z,54.90
2019-04-28T16:08:40.062Z,55.00
2019-04-28T16:11:08.686Z,55.00
2019-04-28T16:13:37.313Z,55.10
2019-04-28T16:16:05.981Z,55.00
2019-04-28T16:18:34.457Z,54.90
2019-04-28T16:21:03.026Z,55.00
2019-04-28T16:23:31.959Z,54.70
2019-04-28T16:26:00.575Z,54.60
2019-04-28T16:28:29.513Z,54.70
2019-04-28T16:30:58.062Z,54.90
2019-04-28T16:33:26.784Z,54.70
2019-04-28T16:35:55.370Z,54.80
2019-04-28T16:38:23.910Z,54.70
2019-04-28T16:40:54.210Z,54.70
2019-04-28T16:43:23.641Z,54.70
2019-04-28T16:45:52.127Z,54.70
2019-04-28T16:48:20.623Z,54.80
2019-04-28T16:50:49.093Z,54.70
2019-04-28T16:53:17.584Z,54.60
2019-04-28T16:55:47.788Z,54.80
2019-04-28T16:58:17.905Z,54.70
2019-04-28T17:00:48.411Z,54.60
2019-04-28T17:03:17.429Z,54.60
2019-04-28T17:05:46.177Z,54.40
2019-04-28T17:08:16.260Z,54.50
2019-04-28T17:10:44.814Z,54.30
2019-04-28T17:13:15.624Z,54.10
2019-04-28T17:15:43.952Z,54.00
2019-04-28T17:18:12.460Z,53.90
2019-04-28T17:20:41.017Z,53.90
2019-04-28T17:23:09.586Z,54.10
2019-04-28T17:25:38.076Z,54.50
2019-04-28T17:28:08.357Z,54.60
2019-04-28T17:30:36.833Z,54.90
2019-04-28T17:33:05.400Z,55.10
2019-04-28T17:35:34.472Z,55.30
2019-04-28T17:38:06.909Z,55.40
2019-04-28T17:40:33.834Z,55.60
2019-04-28T17:43:02.295Z,55.60
2019-04-28T17:45:30.784Z,55.60
2019-04-28T17:48:00.911Z,55.60
2019-04-28T17:50:30.190Z,55.70
2019-04-28T17:52:59.501Z,55.90
2019-04-28T17:55:28.031Z,56.30
2019-04-28T17:57:56.514Z,56.50
2019-04-28T18:00:26.799Z,56.80
2019-04-28T18:02:59.892Z,56.80
2019-04-28T18:05:45.025Z,56.50
2019-04-28T18:08:20.885Z,56.40
2019-04-28T18:10:43.940Z,56.30
2019-04-28T18:13:31.676Z,56.50
2019-04-28T18:16:11.505Z,56.70
2019-04-28T18:18:41.626Z,56.90
2019-04-28T18:21:10.106Z,57.20
2019-04-28T18:23:38.662Z,57.30
2019-04-28T18:26:07.217Z,57.60
2019-04-28T18:28:35.691Z,57.70
2019-04-28T18:31:06.411Z,57.90
2019-04-28T18:33:52.767Z,58.10
2019-04-28T18:36:22.961Z,58.20
2019-04-28T18:38:55.646Z,58.50
2019-04-28T18:41:41.982Z,58.60
2019-04-28T18:44:12.106Z,58.70
2019-04-28T18:46:40.652Z,59.00
2019-04-28T18:49:09.241Z,59.10
2019-04-28T18:51:37.829Z,59.40
2019-04-28T18:54:06.582Z,59.50
2019-04-28T18:56:35.544Z,60.20
2019-04-28T18:59:04.852Z,60.10
2019-04-28T19:01:38.164Z,60.50
2019-04-28T19:04:06.763Z,60.80
2019-04-28T19:06:35.461Z,61.00
2019-04-28T19:09:17.242Z,61.30
2019-04-28T19:11:47.458Z,61.60
2019-04-28T19:14:17.976Z,61.60
2019-04-28T19:17:04.277Z,61.80
2019-04-28T19:19:40.761Z,62.00
2019-04-28T19:22:09.251Z,62.20
2019-04-28T19:24:37.799Z,62.30
2019-04-28T19:27:06.272Z,62.70
2019-04-28T19:29:35.139Z,63.00
2019-04-28T19:32:04.828Z,63.10
2019-04-28T19:34:33.318Z,63.40
2019-04-28T19:37:02.146Z,63.40
2019-04-28T19:39:30.638Z,63.40
2019-04-28T19:41:59.181Z,63.80
2019-04-28T19:44:27.655Z,63.80
2019-04-28T19:46:56.134Z,63.90
2019-04-28T19:49:24.592Z,64.20
2019-04-28T19:51:53.316Z,64.50
2019-04-28T19:54:23.420Z,64.60
2019-04-28T19:56:56.109Z,65.00
2019-04-28T19:59:35.151Z,64.90
2019-04-28T20:02:03.695Z,64.90
2019-04-28T20:04:32.149Z,65.10
2019-04-28T20:07:00.649Z,65.30
2019-04-28T20:09:29.138Z,65.40
2019-04-28T20:11:57.622Z,65.60
2019-04-28T20:14:26.112Z,65.60
2019-04-28T20:16:54.678Z,65.70
2019-04-28T20:19:23.222Z,66.10
2019-04-28T20:21:51.677Z,66.10
2019-04-28T20:24:20.257Z,66.30
2019-04-28T20:26:48.712Z,66.40
2019-04-28T20:29:17.200Z,66.50
2019-04-28T20:31:45.684Z,66.70
2019-04-28T20:34:14.191Z,66.90
2019-04-28T20:36:47.168Z,66.80
2019-04-28T20:39:17.265Z,67.00
2019-04-28T20:41:45.768Z,67.30
2019-04-28T20:44:14.258Z,67.50
2019-04-28T20:46:42.750Z,67.40
2019-04-28T20:49:11.245Z,67.70
2019-04-28T20:51:39.802Z,67.90
2019-04-28T20:54:08.262Z,68.10
2019-04-28T20:56:37.051Z,68.30
2019-04-28T20:59:05.695Z,68.40
2019-04-28T21:01:34.655Z,68.60
2019-04-28T21:04:03.222Z,68.70
2019-04-28T21:06:31.791Z,68.70
2019-04-28T21:09:00.340Z,69.00
2019-04-28T21:11:28.878Z,69.20
2019-04-28T21:13:57.369Z,69.30
2019-04-28T21:16:25.850Z,69.60
2019-04-28T21:18:54.582Z,69.60
2019-04-28T21:21:23.068Z,69.70
2019-04-28T21:23:51.623Z,69.90
2019-04-28T21:26:20.092Z,70.00
2019-04-28T21:28:48.601Z,70.10
2019-04-28T21:31:17.090Z,70.00
2019-04-28T21:33:45.763Z,70.20
2019-04-28T21:36:14.327Z,70.10
2019-04-28T21:38:42.798Z,70.40
2019-04-28T21:41:12.938Z,70.40
2019-04-28T21:43:43.041Z,70.50
2019-04-28T21:46:19.050Z,70.80
2019-04-28T21:48:49.182Z,71.70
2019-04-28T21:51:17.655Z,71.00
2019-04-28T21:53:46.428Z,71.10
2019-04-28T21:56:14.897Z,72.00
2019-04-28T21:58:43.665Z,71.40
2019-04-28T22:01:15.878Z,72.30
2019-04-28T22:03:44.380Z,71.60
2019-04-28T22:06:13.386Z,71.80
2019-04-28T22:08:41.896Z,72.10
2019-04-28T22:11:10.436Z,72.30
2019-04-28T22:13:38.929Z,72.10
2019-04-28T22:16:08.147Z,72.20
2019-04-28T22:18:36.824Z,72.30
2019-04-28T22:21:05.460Z,72.30
2019-04-28T22:23:41.364Z,72.40
2019-04-28T22:26:11.570Z,72.30
2019-04-28T22:28:40.135Z,72.10
2019-04-28T22:31:09.370Z,72.20
2019-04-28T22:33:37.867Z,72.50
2019-04-28T22:36:06.328Z,72.80
2019-04-28T22:38:34.957Z,73.20
2019-04-28T22:41:03.440Z,73.50
2019-04-28T22:43:31.915Z,73.60
2019-04-28T22:46:00.371Z,73.20
2019-04-28T22:48:30.906Z,73.20
2019-04-28T22:50:59.761Z,73.40
2019-04-28T22:53:29.905Z,73.10
2019-04-28T22:56:02.625Z,73.50
2019-04-28T22:58:41.572Z,73.60
2019-04-28T23:01:14.604Z,73.70
2019-04-28T23:03:48.149Z,73.60
2019-04-28T23:06:17.098Z,73.50
2019-04-28T23:08:45.623Z,73.60
2019-04-28T23:11:14.099Z,73.60
2019-04-28T23:13:42.663Z,73.70
2019-04-28T23:16:12.898Z,73.70
2019-04-28T23:18:41.597Z,73.90
2019-04-28T23:21:11.730Z,74.00
2019-04-28T23:23:40.193Z,73.90
2019-04-28T23:26:08.744Z,73.80
2019-04-28T23:28:37.369Z,74.00
2019-04-28T23:31:06.213Z,73.90
2019-04-28T23:33:34.687Z,73.90
2019-04-28T23:36:03.305Z,74.10
2019-04-28T23:38:31.838Z,74.30
2019-04-28T23:41:18.118Z,74.30
2019-04-28T23:43:46.577Z,74.40
2019-04-28T23:46:15.487Z,74.30
2019-04-28T23:48:44.079Z,74.60
2019-04-28T23:51:14.188Z,74.80
2019-04-28T23:53:59.068Z,74.70
2019-04-28T23:56:27.536Z,74.80
2019-04-28T23:58:56.077Z,74.70
